sensor_id;sensor_type;location;lat;lon;timestamp;P1;durP1;ratioP1;P2;durP2;ratioP2
37645;SDS011;23489;49.600;6.138;2023-04-01T00:00:29;6.68;;;2.10;;
37645;SDS011;23489;49.600;6.138;2023-04-01T00:02:55;5.93;;;1.50;;
37645;SDS011;23489;49.600;6.138;2023-04-01T00:05:20;6.70;;;1.77;;
37645;SDS011;23489;49.600;6.138;2023-04-01T00:07:46;5.07;;;1.83;;
37645;SDS011;23489;49.600;6.138;2023-04-01T00:10:12;5.30;;;1.63;;
37645;SDS011;23489;49.600;6.138;2023-04-01T00:12:38;4.72;;;1.35;;
37645;SDS011;23489;49.600;6.138;2023-04-01T00:15:05;7.80;;;2.20;;
37645;SDS011;23489;49.600;6.138;2023-04-01T00:17:32;3.60;;;1.60;;
37645;SDS011;23489;49.600;6.138;2023-04-01T00:19:57;5.35;;;1.70;;
37645;SDS011;23489;49.600;6.138;2023-04-01T00:22:23;3.72;;;1.58;;
37645;SDS011;23489;49.600;6.138;2023-04-01T00:24:49;3.95;;;1.42;;
37645;SDS011;23489;49.600;6.138;2023-04-01T00:27:15;4.50;;;1.50;;
37645;SDS011;23489;49.600;6.138;2023-04-01T00:29:42;9.48;;;1.83;;
37645;SDS011;23489;49.600;6.138;2023-04-01T00:32:08;5.40;;;1.50;;
37645;SDS011;23489;49.600;6.138;2023-04-01T00:34:34;3.58;;;1.33;;
37645;SDS011;23489;49.600;6.138;2023-04-01T00:36:59;6.35;;;1.77;;
37645;SDS011;23489;49.600;6.138;2023-04-01T00:39:25;5.50;;;1.98;;
37645;SDS011;23489;49.600;6.138;2023-04-01T00:41:54;6.15;;;1.48;;
37645;SDS011;23489;49.600;6.138;2023-04-01T00:44:23;6.10;;;1.60;;
37645;SDS011;23489;49.600;6.138;2023-04-01T00:46:50;4.10;;;1.65;;
37645;SDS011;23489;49.600;6.138;2023-04-01T00:49:17;4.70;;;1.20;;
37645;SDS011;23489;49.600;6.138;2023-04-01T00:51:45;6.00;;;1.70;;
37645;SDS011;23489;49.600;6.138;2023-04-01T00:54:15;3.00;;;1.40;;
37645;SDS011;23489;49.600;6.138;2023-04-01T00:56:45;6.03;;;1.20;;
37645;SDS011;23489;49.600;6.138;2023-04-01T00:59:16;3.55;;;1.40;;
37645;SDS011;23489;49.600;6.138;2023-04-01T01:01:47;2.08;;;1.23;;
37645;SDS011;23489;49.600;6.138;2023-04-01T01:19:52;6.43;;;1.65;;
37645;SDS011;23489;49.600;6.138;2023-04-01T01:34:16;4.95;;;1.65;;
37645;SDS011;23489;49.600;6.138;2023-04-01T01:36:50;9.68;;;1.80;;
37645;SDS011;23489;49.600;6.138;2023-04-01T01:39:21;7.97;;;1.38;;
37645;SDS011;23489;49.600;6.138;2023-04-01T01:41:53;5.88;;;1.73;;
37645;SDS011;23489;49.600;6.138;2023-04-01T01:44:26;5.45;;;1.60;;
37645;SDS011;23489;49.600;6.138;2023-04-01T01:46:55;3.53;;;1.38;;
37645;SDS011;23489;49.600;6.138;2023-04-01T01:49:21;4.00;;;1.70;;
37645;SDS011;23489;49.600;6.138;2023-04-01T01:51:48;5.30;;;1.30;;
37645;SDS011;23489;49.600;6.138;2023-04-01T01:54:16;5.03;;;1.65;;
37645;SDS011;23489;49.600;6.138;2023-04-01T01:56:46;8.05;;;2.30;;
37645;SDS011;23489;49.600;6.138;2023-04-01T01:59:15;4.15;;;1.73;;
37645;SDS011;23489;49.600;6.138;2023-04-01T02:01:45;5.40;;;1.60;;
37645;SDS011;23489;49.600;6.138;2023-04-01T02:04:13;5.78;;;1.60;;
37645;SDS011;23489;49.600;6.138;2023-04-01T02:07:24;4.95;;;1.35;;
37645;SDS011;23489;49.600;6.138;2023-04-01T02:09:32;5.55;;;1.38;;
37645;SDS011;23489;49.600;6.138;2023-04-01T02:12:01;4.03;;;1.40;;
37645;SDS011;23489;49.600;6.138;2023-04-01T02:17:18;6.38;;;1.70;;
37645;SDS011;23489;49.600;6.138;2023-04-01T02:19:56;7.03;;;1.58;;
37645;SDS011;23489;49.600;6.138;2023-04-01T02:22:31;9.40;;;1.88;;
37645;SDS011;23489;49.600;6.138;2023-04-01T02:25:10;8.52;;;1.65;;
37645;SDS011;23489;49.600;6.138;2023-04-01T02:27:39;9.35;;;1.75;;
37645;SDS011;23489;49.600;6.138;2023-04-01T02:30:07;5.57;;;1.70;;
37645;SDS011;23489;49.600;6.138;2023-04-01T02:32:33;4.32;;;1.45;;
37645;SDS011;23489;49.600;6.138;2023-04-01T02:35:02;7.78;;;1.55;;
37645;SDS011;23489;49.600;6.138;2023-04-01T02:37:31;3.58;;;1.33;;
37645;SDS011;23489;49.600;6.138;2023-04-01T02:40:00;4.05;;;1.17;;
37645;SDS011;23489;49.600;6.138;2023-04-01T02:42:27;5.38;;;2.42;;
37645;SDS011;23489;49.600;6.138;2023-04-01T02:44:53;6.05;;;1.50;;
37645;SDS011;23489;49.600;6.138;2023-04-01T02:47:19;5.45;;;1.40;;
37645;SDS011;23489;49.600;6.138;2023-04-01T02:49:44;4.25;;;1.42;;
37645;SDS011;23489;49.600;6.138;2023-04-01T02:52:10;3.58;;;1.45;;
37645;SDS011;23489;49.600;6.138;2023-04-01T02:54:35;6.60;;;1.67;;
37645;SDS011;23489;49.600;6.138;2023-04-01T02:57:01;4.95;;;1.52;;
37645;SDS011;23489;49.600;6.138;2023-04-01T02:59:28;4.53;;;1.58;;
37645;SDS011;23489;49.600;6.138;2023-04-01T03:01:53;4.82;;;1.52;;
37645;SDS011;23489;49.600;6.138;2023-04-01T03:04:19;5.10;;;1.55;;
37645;SDS011;23489;49.600;6.138;2023-04-01T03:06:45;4.43;;;1.70;;
37645;SDS011;23489;49.600;6.138;2023-04-01T03:09:10;2.65;;;1.40;;
37645;SDS011;23489;49.600;6.138;2023-04-01T03:11:36;6.03;;;1.42;;
37645;SDS011;23489;49.600;6.138;2023-04-01T03:14:02;2.90;;;1.27;;
37645;SDS011;23489;49.600;6.138;2023-04-01T03:16:28;4.75;;;1.45;;
37645;SDS011;23489;49.600;6.138;2023-04-01T03:18:53;6.47;;;1.95;;
37645;SDS011;23489;49.600;6.138;2023-04-01T03:21:22;3.92;;;1.70;;
37645;SDS011;23489;49.600;6.138;2023-04-01T03:23:48;5.28;;;1.45;;
37645;SDS011;23489;49.600;6.138;2023-04-01T03:26:15;4.53;;;1.30;;
37645;SDS011;23489;49.600;6.138;2023-04-01T03:28:42;4.47;;;1.65;;
37645;SDS011;23489;49.600;6.138;2023-04-01T03:31:08;4.55;;;1.30;;
37645;SDS011;23489;49.600;6.138;2023-04-01T03:33:40;4.47;;;1.30;;
37645;SDS011;23489;49.600;6.138;2023-04-01T03:36:06;2.88;;;1.33;;
37645;SDS011;23489;49.600;6.138;2023-04-01T03:38:32;3.83;;;1.52;;
37645;SDS011;23489;49.600;6.138;2023-04-01T03:40:59;2.33;;;1.00;;
37645;SDS011;23489;49.600;6.138;2023-04-01T03:43:25;3.80;;;1.33;;
37645;SDS011;23489;49.600;6.138;2023-04-01T03:45:51;3.45;;;1.63;;
37645;SDS011;23489;49.600;6.138;2023-04-01T03:48:17;2.22;;;1.35;;
37645;SDS011;23489;49.600;6.138;2023-04-01T03:50:43;6.03;;;1.30;;
37645;SDS011;23489;49.600;6.138;2023-04-01T03:53:09;2.45;;;1.30;;
37645;SDS011;23489;49.600;6.138;2023-04-01T03:55:39;2.65;;;1.20;;
37645;SDS011;23489;49.600;6.138;2023-04-01T03:58:05;3.72;;;1.17;;
37645;SDS011;23489;49.600;6.138;2023-04-01T04:00:32;3.25;;;1.30;;
37645;SDS011;23489;49.600;6.138;2023-04-01T04:02:59;3.53;;;1.60;;
37645;SDS011;23489;49.600;6.138;2023-04-01T04:05:30;2.85;;;1.10;;
37645;SDS011;23489;49.600;6.138;2023-04-01T04:07:56;4.93;;;1.40;;
37645;SDS011;23489;49.600;6.138;2023-04-01T04:10:22;3.35;;;1.13;;
37645;SDS011;23489;49.600;6.138;2023-04-01T04:12:49;2.28;;;0.73;;
37645;SDS011;23489;49.600;6.138;2023-04-01T04:15:16;2.90;;;1.30;;
37645;SDS011;23489;49.600;6.138;2023-04-01T04:17:42;4.20;;;1.05;;
37645;SDS011;23489;49.600;6.138;2023-04-01T04:20:08;6.22;;;0.77;;
37645;SDS011;23489;49.600;6.138;2023-04-01T04:22:34;3.17;;;1.15;;
37645;SDS011;23489;49.600;6.138;2023-04-01T04:25:04;3.90;;;1.80;;
37645;SDS011;23489;49.600;6.138;2023-04-01T04:27:30;2.78;;;0.73;;
37645;SDS011;23489;49.600;6.138;2023-04-01T04:30:05;1.52;;;0.70;;
37645;SDS011;23489;49.600;6.138;2023-04-01T04:32:31;2.58;;;0.90;;
37645;SDS011;23489;49.600;6.138;2023-04-01T04:34:57;1.15;;;0.88;;
37645;SDS011;23489;49.600;6.138;2023-04-01T04:37:23;1.25;;;0.70;;
37645;SDS011;23489;49.600;6.138;2023-04-01T04:39:48;0.88;;;0.73;;
37645;SDS011;23489;49.600;6.138;2023-04-01T04:42:14;2.55;;;0.85;;
37645;SDS011;23489;49.600;6.138;2023-04-01T04:44:40;3.65;;;0.82;;
37645;SDS011;23489;49.600;6.138;2023-04-01T04:47:06;0.57;;;0.50;;
37645;SDS011;23489;49.600;6.138;2023-04-01T04:49:31;2.05;;;0.80;;
37645;SDS011;23489;49.600;6.138;2023-04-01T04:51:59;1.13;;;0.50;;
37645;SDS011;23489;49.600;6.138;2023-04-01T04:54:26;1.60;;;0.75;;
37645;SDS011;23489;49.600;6.138;2023-04-01T04:56:55;0.88;;;0.45;;
37645;SDS011;23489;49.600;6.138;2023-04-01T04:59:22;4.65;;;0.70;;
37645;SDS011;23489;49.600;6.138;2023-04-01T05:01:56;1.55;;;0.63;;
37645;SDS011;23489;49.600;6.138;2023-04-01T05:04:21;1.20;;;0.50;;
37645;SDS011;23489;49.600;6.138;2023-04-01T05:06:47;2.58;;;0.70;;
37645;SDS011;23489;49.600;6.138;2023-04-01T05:09:14;1.05;;;0.60;;
37645;SDS011;23489;49.600;6.138;2023-04-01T05:11:40;1.35;;;0.60;;
37645;SDS011;23489;49.600;6.138;2023-04-01T05:14:11;1.65;;;0.60;;
37645;SDS011;23489;49.600;6.138;2023-04-01T05:16:39;1.02;;;0.60;;
37645;SDS011;23489;49.600;6.138;2023-04-01T05:19:04;0.82;;;0.55;;
37645;SDS011;23489;49.600;6.138;2023-04-01T05:21:30;2.60;;;0.80;;
37645;SDS011;23489;49.600;6.138;2023-04-01T05:23:57;1.45;;;0.65;;
37645;SDS011;23489;49.600;6.138;2023-04-01T05:26:24;0.50;;;0.47;;
37645;SDS011;23489;49.600;6.138;2023-04-01T05:28:49;1.52;;;0.88;;
37645;SDS011;23489;49.600;6.138;2023-04-01T05:31:15;1.17;;;0.60;;
37645;SDS011;23489;49.600;6.138;2023-04-01T05:33:43;1.30;;;0.63;;
37645;SDS011;23489;49.600;6.138;2023-04-01T05:36:10;0.47;;;0.40;;
37645;SDS011;23489;49.600;6.138;2023-04-01T05:38:37;1.15;;;0.60;;
37645;SDS011;23489;49.600;6.138;2023-04-01T05:41:05;3.00;;;0.73;;
37645;SDS011;23489;49.600;6.138;2023-04-01T05:43:38;1.77;;;1.10;;
37645;SDS011;23489;49.600;6.138;2023-04-01T05:46:25;0.68;;;0.60;;
37645;SDS011;23489;49.600;6.138;2023-04-01T05:49:04;0.70;;;0.45;;
37645;SDS011;23489;49.600;6.138;2023-04-01T05:51:32;1.15;;;0.40;;
37645;SDS011;23489;49.600;6.138;2023-04-01T05:53:57;0.43;;;0.43;;
37645;SDS011;23489;49.600;6.138;2023-04-01T05:56:23;2.10;;;0.80;;
37645;SDS011;23489;49.600;6.138;2023-04-01T05:58:51;2.28;;;0.80;;
37645;SDS011;23489;49.600;6.138;2023-04-01T06:01:19;1.63;;;0.90;;
37645;SDS011;23489;49.600;6.138;2023-04-01T06:03:45;1.60;;;1.00;;
37645;SDS011;23489;49.600;6.138;2023-04-01T06:06:13;1.42;;;0.80;;
37645;SDS011;23489;49.600;6.138;2023-04-01T06:08:41;1.30;;;0.85;;
37645;SDS011;23489;49.600;6.138;2023-04-01T06:14:16;1.75;;;1.00;;
37645;SDS011;23489;49.600;6.138;2023-04-01T06:26:01;0.50;;;0.50;;
37645;SDS011;23489;49.600;6.138;2023-04-01T06:43:44;1.40;;;0.38;;
37645;SDS011;23489;49.600;6.138;2023-04-01T06:56:17;0.40;;;0.40;;
37645;SDS011;23489;49.600;6.138;2023-04-01T06:58:58;1.45;;;0.90;;
37645;SDS011;23489;49.600;6.138;2023-04-01T07:01:32;0.52;;;0.50;;
37645;SDS011;23489;49.600;6.138;2023-04-01T07:04:05;0.50;;;0.50;;
37645;SDS011;23489;49.600;6.138;2023-04-01T07:06:46;0.65;;;0.60;;
37645;SDS011;23489;49.600;6.138;2023-04-01T07:09:22;1.80;;;0.60;;
37645;SDS011;23489;49.600;6.138;2023-04-01T07:12:27;0.70;;;0.47;;
37645;SDS011;23489;49.600;6.138;2023-04-01T07:15:17;2.95;;;0.77;;
37645;SDS011;23489;49.600;6.138;2023-04-01T07:17:47;1.45;;;0.63;;
37645;SDS011;23489;49.600;6.138;2023-04-01T07:20:26;2.03;;;0.63;;
37645;SDS011;23489;49.600;6.138;2023-04-01T07:23:03;1.95;;;0.73;;
37645;SDS011;23489;49.600;6.138;2023-04-01T07:25:52;1.75;;;0.70;;
37645;SDS011;23489;49.600;6.138;2023-04-01T07:28:42;0.60;;;0.60;;
37645;SDS011;23489;49.600;6.138;2023-04-01T07:34:12;1.25;;;0.80;;
37645;SDS011;23489;49.600;6.138;2023-04-01T07:36:49;0.50;;;0.50;;
37645;SDS011;23489;49.600;6.138;2023-04-01T07:44:54;0.40;;;0.40;;
37645;SDS011;23489;49.600;6.138;2023-04-01T07:47:29;1.67;;;0.45;;
37645;SDS011;23489;49.600;6.138;2023-04-01T07:50:22;0.60;;;0.47;;
37645;SDS011;23489;49.600;6.138;2023-04-01T07:53:13;1.45;;;0.50;;
37645;SDS011;23489;49.600;6.138;2023-04-01T07:55:54;0.35;;;0.35;;
37645;SDS011;23489;49.600;6.138;2023-04-01T07:58:43;0.50;;;0.40;;
37645;SDS011;23489;49.600;6.138;2023-04-01T08:09:10;0.93;;;0.65;;
37645;SDS011;23489;49.600;6.138;2023-04-01T08:15:23;0.60;;;0.60;;
37645;SDS011;23489;49.600;6.138;2023-04-01T08:18:23;0.60;;;0.60;;
37645;SDS011;23489;49.600;6.138;2023-04-01T08:23:26;0.55;;;0.55;;
37645;SDS011;23489;49.600;6.138;2023-04-01T08:25:58;1.17;;;0.77;;
37645;SDS011;23489;49.600;6.138;2023-04-01T08:34:08;0.90;;;0.65;;
37645;SDS011;23489;49.600;6.138;2023-04-01T08:39:58;0.95;;;0.80;;
37645;SDS011;23489;49.600;6.138;2023-04-01T08:51:08;0.40;;;0.40;;
37645;SDS011;23489;49.600;6.138;2023-04-01T09:00:10;0.82;;;0.50;;
37645;SDS011;23489;49.600;6.138;2023-04-01T09:09:02;0.47;;;0.47;;
37645;SDS011;23489;49.600;6.138;2023-04-01T09:14:30;0.60;;;0.52;;
37645;SDS011;23489;49.600;6.138;2023-04-01T09:31:49;1.08;;;0.77;;
37645;SDS011;23489;49.600;6.138;2023-04-01T09:34:53;1.67;;;0.90;;
37645;SDS011;23489;49.600;6.138;2023-04-01T09:45:37;2.80;;;0.60;;
37645;SDS011;23489;49.600;6.138;2023-04-01T09:54:07;0.65;;;0.57;;
37645;SDS011;23489;49.600;6.138;2023-04-01T10:05:58;1.40;;;0.60;;
37645;SDS011;23489;49.600;6.138;2023-04-01T10:19:43;0.40;;;0.40;;
37645;SDS011;23489;49.600;6.138;2023-04-01T10:25:02;2.63;;;0.40;;
37645;SDS011;23489;49.600;6.138;2023-04-01T10:42:34;0.47;;;0.38;;
37645;SDS011;23489;49.600;6.138;2023-04-01T10:52:07;0.90;;;0.70;;
37645;SDS011;23489;49.600;6.138;2023-04-01T10:58:53;0.98;;;0.63;;
37645;SDS011;23489;49.600;6.138;2023-04-01T11:05:05;1.00;;;0.60;;
37645;SDS011;23489;49.600;6.138;2023-04-01T11:11:15;1.00;;;0.80;;
37645;SDS011;23489;49.600;6.138;2023-04-01T11:30:53;0.70;;;0.68;;
37645;SDS011;23489;49.600;6.138;2023-04-01T11:36:20;1.02;;;0.80;;
37645;SDS011;23489;49.600;6.138;2023-04-01T11:39:11;2.03;;;1.10;;
37645;SDS011;23489;49.600;6.138;2023-04-01T11:53:47;1.90;;;0.77;;
37645;SDS011;23489;49.600;6.138;2023-04-01T12:02:24;0.85;;;0.60;;
37645;SDS011;23489;49.600;6.138;2023-04-01T12:10:33;0.60;;;0.60;;
37645;SDS011;23489;49.600;6.138;2023-04-01T12:19:07;1.13;;;0.70;;
37645;SDS011;23489;49.600;6.138;2023-04-01T12:22:00;1.25;;;0.70;;
37645;SDS011;23489;49.600;6.138;2023-04-01T12:24:49;0.70;;;0.70;;
37645;SDS011;23489;49.600;6.138;2023-04-01T12:27:48;0.70;;;0.70;;
37645;SDS011;23489;49.600;6.138;2023-04-01T12:30:50;2.22;;;0.88;;
37645;SDS011;23489;49.600;6.138;2023-04-01T12:50:15;1.92;;;0.90;;
37645;SDS011;23489;49.600;6.138;2023-04-01T12:55:40;1.75;;;0.95;;
37645;SDS011;23489;49.600;6.138;2023-04-01T13:17:27;1.60;;;1.17;;
37645;SDS011;23489;49.600;6.138;2023-04-01T13:28:17;1.38;;;0.90;;
37645;SDS011;23489;49.600;6.138;2023-04-01T13:30:51;0.88;;;0.85;;
37645;SDS011;23489;49.600;6.138;2023-04-01T13:43:47;1.23;;;0.88;;
37645;SDS011;23489;49.600;6.138;2023-04-01T13:46:22;0.70;;;0.70;;
37645;SDS011;23489;49.600;6.138;2023-04-01T14:06:02;0.60;;;0.60;;
37645;SDS011;23489;49.600;6.138;2023-04-01T14:11:21;1.95;;;0.80;;
37645;SDS011;23489;49.600;6.138;2023-04-01T14:27:52;0.40;;;0.40;;
37645;SDS011;23489;49.600;6.138;2023-04-01T14:30:26;1.13;;;1.02;;
37645;SDS011;23489;49.600;6.138;2023-04-01T14:35:55;2.00;;;0.80;;
37645;SDS011;23489;49.600;6.138;2023-04-01T14:49:36;1.85;;;0.95;;
37645;SDS011;23489;49.600;6.138;2023-04-01T14:54:56;2.30;;;1.00;;
37645;SDS011;23489;49.600;6.138;2023-04-01T14:57:30;2.47;;;1.10;;
37645;SDS011;23489;49.600;6.138;2023-04-01T15:02:40;2.53;;;0.95;;
37645;SDS011;23489;49.600;6.138;2023-04-01T15:16:25;0.90;;;0.70;;
37645;SDS011;23489;49.600;6.138;2023-04-01T15:25:00;1.00;;;0.90;;
37645;SDS011;23489;49.600;6.138;2023-04-01T15:33:46;5.03;;;1.00;;
37645;SDS011;23489;49.600;6.138;2023-04-01T15:36:20;2.03;;;1.00;;
37645;SDS011;23489;49.600;6.138;2023-04-01T15:41:58;2.67;;;0.82;;
37645;SDS011;23489;49.600;6.138;2023-04-01T15:49:54;3.50;;;0.77;;
37645;SDS011;23489;49.600;6.138;2023-04-01T15:55:43;0.70;;;0.70;;
37645;SDS011;23489;49.600;6.138;2023-04-01T16:03:36;0.90;;;0.90;;
37645;SDS011;23489;49.600;6.138;2023-04-01T16:11:42;1.95;;;0.90;;
37645;SDS011;23489;49.600;6.138;2023-04-01T16:25:39;1.17;;;0.88;;
37645;SDS011;23489;49.600;6.138;2023-04-01T16:28:17;1.38;;;1.00;;
37645;SDS011;23489;49.600;6.138;2023-04-01T16:31:13;1.00;;;0.70;;
37645;SDS011;23489;49.600;6.138;2023-04-01T16:33:52;1.15;;;1.05;;
37645;SDS011;23489;49.600;6.138;2023-04-01T16:36:44;1.08;;;0.93;;
37645;SDS011;23489;49.600;6.138;2023-04-01T16:44:55;0.93;;;0.90;;
37645;SDS011;23489;49.600;6.138;2023-04-01T16:47:27;1.17;;;0.95;;
37645;SDS011;23489;49.600;6.138;2023-04-01T16:49:58;1.27;;;1.05;;
37645;SDS011;23489;49.600;6.138;2023-04-01T16:52:54;3.03;;;1.10;;
37645;SDS011;23489;49.600;6.138;2023-04-01T16:56:02;1.45;;;1.33;;
37645;SDS011;23489;49.600;6.138;2023-04-01T16:58:39;1.30;;;1.15;;
37645;SDS011;23489;49.600;6.138;2023-04-01T17:01:14;1.40;;;1.05;;
37645;SDS011;23489;49.600;6.138;2023-04-01T17:03:45;1.90;;;1.35;;
37645;SDS011;23489;49.600;6.138;2023-04-01T17:06:30;1.85;;;1.33;;
37645;SDS011;23489;49.600;6.138;2023-04-01T17:09:18;3.15;;;1.38;;
37645;SDS011;23489;49.600;6.138;2023-04-01T17:17:34;1.85;;;1.33;;
37645;SDS011;23489;49.600;6.138;2023-04-01T17:20:13;2.75;;;1.30;;
37645;SDS011;23489;49.600;6.138;2023-04-01T17:27:59;1.77;;;1.20;;
37645;SDS011;23489;49.600;6.138;2023-04-01T17:33:30;1.98;;;1.40;;
37645;SDS011;23489;49.600;6.138;2023-04-01T17:36:37;1.55;;;1.20;;
37645;SDS011;23489;49.600;6.138;2023-04-01T17:39:29;2.50;;;1.33;;
37645;SDS011;23489;49.600;6.138;2023-04-01T17:47:22;6.32;;;2.20;;
37645;SDS011;23489;49.600;6.138;2023-04-01T17:52:39;2.45;;;1.45;;
37645;SDS011;23489;49.600;6.138;2023-04-01T17:55:32;2.00;;;1.55;;
37645;SDS011;23489;49.600;6.138;2023-04-01T17:58:21;2.40;;;1.70;;
37645;SDS011;23489;49.600;6.138;2023-04-01T18:06:29;1.67;;;1.30;;
37645;SDS011;23489;49.600;6.138;2023-04-01T18:26:08;4.40;;;1.98;;
37645;SDS011;23489;49.600;6.138;2023-04-01T18:31:19;3.47;;;2.00;;
37645;SDS011;23489;49.600;6.138;2023-04-01T18:33:49;4.20;;;2.10;;
37645;SDS011;23489;49.600;6.138;2023-04-01T18:36:25;3.22;;;2.50;;
37645;SDS011;23489;49.600;6.138;2023-04-01T18:44:34;3.25;;;2.15;;
37645;SDS011;23489;49.600;6.138;2023-04-01T18:53:17;2.63;;;2.40;;
37645;SDS011;23489;49.600;6.138;2023-04-01T18:56:06;4.25;;;3.63;;
37645;SDS011;23489;49.600;6.138;2023-04-01T18:59:06;3.47;;;2.67;;
37645;SDS011;23489;49.600;6.138;2023-04-01T19:01:47;5.78;;;2.90;;
37645;SDS011;23489;49.600;6.138;2023-04-01T19:04:18;3.83;;;2.72;;
37645;SDS011;23489;49.600;6.138;2023-04-01T19:10:21;5.80;;;2.63;;
37645;SDS011;23489;49.600;6.138;2023-04-01T19:18:55;4.45;;;2.80;;
37645;SDS011;23489;49.600;6.138;2023-04-01T19:21:39;4.15;;;3.10;;
37645;SDS011;23489;49.600;6.138;2023-04-01T19:45:48;5.40;;;3.10;;
37645;SDS011;23489;49.600;6.138;2023-04-01T19:51:17;3.67;;;2.63;;
37645;SDS011;23489;49.600;6.138;2023-04-01T19:56:46;2.75;;;2.35;;
37645;SDS011;23489;49.600;6.138;2023-04-01T19:59:34;4.22;;;2.90;;
37645;SDS011;23489;49.600;6.138;2023-04-01T20:09:49;3.53;;;2.40;;
37645;SDS011;23489;49.600;6.138;2023-04-01T20:12:46;4.13;;;2.80;;
37645;SDS011;23489;49.600;6.138;2023-04-01T20:15:33;2.40;;;2.03;;
37645;SDS011;23489;49.600;6.138;2023-04-01T20:18:55;2.67;;;2.33;;
37645;SDS011;23489;49.600;6.138;2023-04-01T20:24:02;2.45;;;2.25;;
37645;SDS011;23489;49.600;6.138;2023-04-01T20:26:31;2.25;;;2.00;;
37645;SDS011;23489;49.600;6.138;2023-04-01T20:40:14;5.03;;;2.20;;
37645;SDS011;23489;49.600;6.138;2023-04-01T20:42:52;4.32;;;2.45;;
37645;SDS011;23489;49.600;6.138;2023-04-01T20:45:58;2.55;;;2.05;;
37645;SDS011;23489;49.600;6.138;2023-04-01T20:49:30;2.40;;;2.20;;
37645;SDS011;23489;49.600;6.138;2023-04-01T20:52:16;2.47;;;2.00;;
37645;SDS011;23489;49.600;6.138;2023-04-01T21:03:05;2.17;;;1.98;;
37645;SDS011;23489;49.600;6.138;2023-04-01T21:11:33;2.83;;;2.30;;
37645;SDS011;23489;49.600;6.138;2023-04-01T21:22:45;3.28;;;2.53;;
37645;SDS011;23489;49.600;6.138;2023-04-01T21:36:42;5.38;;;3.67;;
37645;SDS011;23489;49.600;6.138;2023-04-01T21:51:10;5.60;;;3.55;;
37645;SDS011;23489;49.600;6.138;2023-04-01T22:13:50;6.45;;;3.65;;
37645;SDS011;23489;49.600;6.138;2023-04-01T22:16:47;5.43;;;3.55;;
37645;SDS011;23489;49.600;6.138;2023-04-01T22:25:08;6.97;;;4.67;;
37645;SDS011;23489;49.600;6.138;2023-04-01T22:30:18;4.47;;;3.47;;
37645;SDS011;23489;49.600;6.138;2023-04-01T22:32:47;4.72;;;3.75;;
37645;SDS011;23489;49.600;6.138;2023-04-01T22:41:29;7.20;;;3.47;;
37645;SDS011;23489;49.600;6.138;2023-04-01T22:44:34;5.70;;;3.88;;
37645;SDS011;23489;49.600;6.138;2023-04-01T22:47:27;5.43;;;3.45;;
37645;SDS011;23489;49.600;6.138;2023-04-01T22:55:34;4.28;;;3.35;;
37645;SDS011;23489;49.600;6.138;2023-04-01T22:58:04;4.75;;;3.70;;
37645;SDS011;23489;49.600;6.138;2023-04-01T23:00:34;4.78;;;3.42;;
37645;SDS011;23489;49.600;6.138;2023-04-01T23:03:29;4.38;;;3.53;;
37645;SDS011;23489;49.600;6.138;2023-04-01T23:05:59;3.78;;;3.25;;
37645;SDS011;23489;49.600;6.138;2023-04-01T23:11:18;4.97;;;3.75;;
37645;SDS011;23489;49.600;6.138;2023-04-01T23:16:37;4.00;;;3.15;;
37645;SDS011;23489;49.600;6.138;2023-04-01T23:19:15;5.40;;;3.53;;
37645;SDS011;23489;49.600;6.138;2023-04-01T23:21:59;4.82;;;3.83;;
37645;SDS011;23489;49.600;6.138;2023-04-01T23:27:31;7.72;;;3.63;;
37645;SDS011;23489;49.600;6.138;2023-04-01T23:30:02;4.32;;;3.40;;
37645;SDS011;23489;49.600;6.138;2023-04-01T23:32:28;5.35;;;3.50;;
37645;SDS011;23489;49.600;6.138;2023-04-01T23:34:58;4.10;;;3.20;;
37645;SDS011;23489;49.600;6.138;2023-04-01T23:37:25;4.20;;;3.20;;
37645;SDS011;23489;49.600;6.138;2023-04-01T23:39:52;5.38;;;3.40;;
37645;SDS011;23489;49.600;6.138;2023-04-01T23:42:26;5.57;;;3.28;;
37645;SDS011;23489;49.600;6.138;2023-04-01T23:45:02;4.22;;;3.38;;
37645;SDS011;23489;49.600;6.138;2023-04-01T23:47:31;7.85;;;3.45;;
37645;SDS011;23489;49.600;6.138;2023-04-01T23:50:04;3.97;;;2.83;;
37645;SDS011;23489;49.600;6.138;2023-04-01T23:52:36;4.40;;;2.85;;
37645;SDS011;23489;49.600;6.138;2023-04-01T23:57:42;3.95;;;3.03;;
